sensor_id;sensor_type;location;lat;lon;timestamp;P1;durP1;ratioP1;P2;durP2;ratioP2
16416;SDS011;8317;52.186;5.688;2022-10-17T00:01:19;12.48;;;5.60;;
16416;SDS011;8317;52.186;5.688;2022-10-17T00:03:46;11.32;;;6.30;;
16416;SDS011;8317;52.186;5.688;2022-10-17T00:06:13;12.65;;;6.78;;
16416;SDS011;8317;52.186;5.688;2022-10-17T00:08:41;9.20;;;6.18;;
16416;SDS011;8317;52.186;5.688;2022-10-17T00:11:13;11.38;;;6.82;;
16416;SDS011;8317;52.186;5.688;2022-10-17T00:13:41;10.60;;;7.28;;
16416;SDS011;8317;52.186;5.688;2022-10-17T00:16:08;7.93;;;6.82;;
16416;SDS011;8317;52.186;5.688;2022-10-17T00:18:35;11.15;;;6.90;;
16416;SDS011;8317;52.186;5.688;2022-10-17T00:21:02;10.13;;;6.95;;
16416;SDS011;8317;52.186;5.688;2022-10-17T00:23:29;10.82;;;7.47;;
16416;SDS011;8317;52.186;5.688;2022-10-17T00:25:59;9.85;;;7.85;;
16416;SDS011;8317;52.186;5.688;2022-10-17T00:28:28;10.77;;;8.50;;
16416;SDS011;8317;52.186;5.688;2022-10-17T00:30:56;10.73;;;8.35;;
16416;SDS011;8317;52.186;5.688;2022-10-17T00:33:23;8.82;;;7.93;;
16416;SDS011;8317;52.186;5.688;2022-10-17T00:35:50;9.13;;;7.70;;
16416;SDS011;8317;52.186;5.688;2022-10-17T00:38:26;11.75;;;8.73;;
16416;SDS011;8317;52.186;5.688;2022-10-17T00:40:53;13.63;;;9.20;;
16416;SDS011;8317;52.186;5.688;2022-10-17T00:43:20;10.70;;;9.15;;
16416;SDS011;8317;52.186;5.688;2022-10-17T00:45:48;15.02;;;9.35;;
16416;SDS011;8317;52.186;5.688;2022-10-17T00:48:15;13.45;;;9.25;;
16416;SDS011;8317;52.186;5.688;2022-10-17T00:50:43;17.85;;;10.30;;
16416;SDS011;8317;52.186;5.688;2022-10-17T00:53:13;13.73;;;10.68;;
16416;SDS011;8317;52.186;5.688;2022-10-17T00:55:44;15.32;;;9.65;;
16416;SDS011;8317;52.186;5.688;2022-10-17T00:58:15;14.32;;;10.57;;
16416;SDS011;8317;52.186;5.688;2022-10-17T01:00:43;15.43;;;11.23;;
16416;SDS011;8317;52.186;5.688;2022-10-17T01:03:13;13.18;;;10.50;;
16416;SDS011;8317;52.186;5.688;2022-10-17T01:05:40;17.02;;;11.68;;
16416;SDS011;8317;52.186;5.688;2022-10-17T01:08:07;15.15;;;11.43;;
16416;SDS011;8317;52.186;5.688;2022-10-17T01:10:38;14.98;;;12.13;;
16416;SDS011;8317;52.186;5.688;2022-10-17T01:13:12;13.20;;;11.10;;
16416;SDS011;8317;52.186;5.688;2022-10-17T01:15:49;14.23;;;10.68;;
16416;SDS011;8317;52.186;5.688;2022-10-17T01:18:27;14.95;;;11.02;;
16416;SDS011;8317;52.186;5.688;2022-10-17T01:23:56;16.92;;;11.93;;
16416;SDS011;8317;52.186;5.688;2022-10-17T01:26:50;16.20;;;11.75;;
16416;SDS011;8317;52.186;5.688;2022-10-17T01:29:35;21.08;;;12.13;;
16416;SDS011;8317;52.186;5.688;2022-10-17T01:32:24;17.75;;;11.95;;
16416;SDS011;8317;52.186;5.688;2022-10-17T01:35:00;18.80;;;12.80;;
16416;SDS011;8317;52.186;5.688;2022-10-17T01:37:36;15.95;;;12.70;;
16416;SDS011;8317;52.186;5.688;2022-10-17T01:40:10;23.25;;;12.90;;
16416;SDS011;8317;52.186;5.688;2022-10-17T01:42:41;16.67;;;11.98;;
16416;SDS011;8317;52.186;5.688;2022-10-17T01:45:15;23.13;;;13.38;;
16416;SDS011;8317;52.186;5.688;2022-10-17T01:47:48;18.25;;;12.80;;
16416;SDS011;8317;52.186;5.688;2022-10-17T01:50:18;16.90;;;12.82;;
16416;SDS011;8317;52.186;5.688;2022-10-17T01:52:50;22.00;;;12.43;;
16416;SDS011;8317;52.186;5.688;2022-10-17T01:55:20;15.82;;;12.02;;
16416;SDS011;8317;52.186;5.688;2022-10-17T01:57:51;16.52;;;12.95;;
16416;SDS011;8317;52.186;5.688;2022-10-17T02:00:23;17.55;;;12.38;;
16416;SDS011;8317;52.186;5.688;2022-10-17T02:02:55;22.55;;;13.40;;
16416;SDS011;8317;52.186;5.688;2022-10-17T02:05:25;19.38;;;13.32;;
16416;SDS011;8317;52.186;5.688;2022-10-17T02:07:56;20.23;;;14.13;;
16416;SDS011;8317;52.186;5.688;2022-10-17T02:10:24;19.60;;;14.13;;
16416;SDS011;8317;52.186;5.688;2022-10-17T02:12:58;15.32;;;12.73;;
16416;SDS011;8317;52.186;5.688;2022-10-17T02:15:41;17.77;;;13.75;;
16416;SDS011;8317;52.186;5.688;2022-10-17T02:18:25;20.15;;;12.60;;
16416;SDS011;8317;52.186;5.688;2022-10-17T02:21:05;20.88;;;13.57;;
16416;SDS011;8317;52.186;5.688;2022-10-17T02:23:35;17.08;;;13.02;;
16416;SDS011;8317;52.186;5.688;2022-10-17T02:26:09;19.38;;;14.48;;
16416;SDS011;8317;52.186;5.688;2022-10-17T02:28:41;18.25;;;13.48;;
16416;SDS011;8317;52.186;5.688;2022-10-17T02:31:15;20.80;;;14.13;;
16416;SDS011;8317;52.186;5.688;2022-10-17T02:33:47;22.35;;;13.35;;
16416;SDS011;8317;52.186;5.688;2022-10-17T02:36:20;19.45;;;13.23;;
16416;SDS011;8317;52.186;5.688;2022-10-17T02:39:01;19.38;;;14.07;;
16416;SDS011;8317;52.186;5.688;2022-10-17T02:41:30;17.67;;;13.05;;
16416;SDS011;8317;52.186;5.688;2022-10-17T02:43:57;19.05;;;14.00;;
16416;SDS011;8317;52.186;5.688;2022-10-17T02:46:25;21.90;;;14.52;;
16416;SDS011;8317;52.186;5.688;2022-10-17T02:48:55;21.00;;;14.32;;
16416;SDS011;8317;52.186;5.688;2022-10-17T02:51:27;19.63;;;14.65;;
16416;SDS011;8317;52.186;5.688;2022-10-17T02:54:08;18.92;;;13.70;;
16416;SDS011;8317;52.186;5.688;2022-10-17T02:56:41;19.50;;;14.95;;
16416;SDS011;8317;52.186;5.688;2022-10-17T02:59:14;22.30;;;15.20;;
16416;SDS011;8317;52.186;5.688;2022-10-17T03:01:42;22.58;;;14.60;;
16416;SDS011;8317;52.186;5.688;2022-10-17T03:04:12;21.40;;;14.32;;
16416;SDS011;8317;52.186;5.688;2022-10-17T03:06:40;19.80;;;14.85;;
16416;SDS011;8317;52.186;5.688;2022-10-17T03:09:07;19.83;;;14.38;;
16416;SDS011;8317;52.186;5.688;2022-10-17T03:11:34;22.27;;;14.68;;
16416;SDS011;8317;52.186;5.688;2022-10-17T03:14:01;22.73;;;14.52;;
16416;SDS011;8317;52.186;5.688;2022-10-17T03:16:28;23.63;;;15.15;;
16416;SDS011;8317;52.186;5.688;2022-10-17T03:18:55;19.35;;;14.63;;
16416;SDS011;8317;52.186;5.688;2022-10-17T03:21:23;20.23;;;14.77;;
16416;SDS011;8317;52.186;5.688;2022-10-17T03:23:50;19.73;;;14.57;;
16416;SDS011;8317;52.186;5.688;2022-10-17T03:26:16;26.02;;;15.40;;
16416;SDS011;8317;52.186;5.688;2022-10-17T03:28:43;20.27;;;14.73;;
16416;SDS011;8317;52.186;5.688;2022-10-17T03:31:13;17.65;;;13.15;;
16416;SDS011;8317;52.186;5.688;2022-10-17T03:33:41;19.85;;;13.93;;
16416;SDS011;8317;52.186;5.688;2022-10-17T03:36:09;18.65;;;14.45;;
16416;SDS011;8317;52.186;5.688;2022-10-17T03:38:39;17.10;;;13.63;;
16416;SDS011;8317;52.186;5.688;2022-10-17T03:41:06;19.00;;;13.07;;
16416;SDS011;8317;52.186;5.688;2022-10-17T03:43:33;18.75;;;13.95;;
16416;SDS011;8317;52.186;5.688;2022-10-17T03:46:01;27.02;;;14.10;;
16416;SDS011;8317;52.186;5.688;2022-10-17T03:48:28;16.55;;;12.82;;
16416;SDS011;8317;52.186;5.688;2022-10-17T03:50:57;15.90;;;13.18;;
16416;SDS011;8317;52.186;5.688;2022-10-17T03:53:25;19.13;;;13.88;;
16416;SDS011;8317;52.186;5.688;2022-10-17T03:55:53;15.65;;;12.98;;
16416;SDS011;8317;52.186;5.688;2022-10-17T03:58:20;16.33;;;12.80;;
16416;SDS011;8317;52.186;5.688;2022-10-17T04:00:47;19.60;;;12.77;;
16416;SDS011;8317;52.186;5.688;2022-10-17T04:03:14;19.08;;;12.77;;
16416;SDS011;8317;52.186;5.688;2022-10-17T04:05:41;16.52;;;12.68;;
16416;SDS011;8317;52.186;5.688;2022-10-17T04:08:08;16.95;;;12.48;;
16416;SDS011;8317;52.186;5.688;2022-10-17T04:10:35;18.02;;;13.23;;
16416;SDS011;8317;52.186;5.688;2022-10-17T04:13:03;14.48;;;11.70;;
16416;SDS011;8317;52.186;5.688;2022-10-17T04:15:30;22.08;;;12.35;;
16416;SDS011;8317;52.186;5.688;2022-10-17T04:17:57;18.23;;;12.73;;
16416;SDS011;8317;52.186;5.688;2022-10-17T04:20:24;18.92;;;12.90;;
16416;SDS011;8317;52.186;5.688;2022-10-17T04:22:51;16.40;;;12.82;;
16416;SDS011;8317;52.186;5.688;2022-10-17T04:25:18;19.75;;;12.43;;
16416;SDS011;8317;52.186;5.688;2022-10-17T04:27:44;18.60;;;13.38;;
16416;SDS011;8317;52.186;5.688;2022-10-17T04:30:14;14.35;;;11.57;;
16416;SDS011;8317;52.186;5.688;2022-10-17T04:32:41;13.55;;;11.85;;
16416;SDS011;8317;52.186;5.688;2022-10-17T04:35:08;18.13;;;13.05;;
16416;SDS011;8317;52.186;5.688;2022-10-17T04:37:35;18.75;;;12.70;;
16416;SDS011;8317;52.186;5.688;2022-10-17T04:40:01;17.60;;;12.70;;
16416;SDS011;8317;52.186;5.688;2022-10-17T04:42:29;17.70;;;13.23;;
16416;SDS011;8317;52.186;5.688;2022-10-17T04:44:56;16.05;;;12.18;;
16416;SDS011;8317;52.186;5.688;2022-10-17T04:47:24;16.75;;;12.07;;
16416;SDS011;8317;52.186;5.688;2022-10-17T04:49:51;19.13;;;12.63;;
16416;SDS011;8317;52.186;5.688;2022-10-17T04:52:17;18.17;;;12.60;;
16416;SDS011;8317;52.186;5.688;2022-10-17T04:54:44;19.35;;;12.15;;
16416;SDS011;8317;52.186;5.688;2022-10-17T04:57:11;23.02;;;13.88;;
16416;SDS011;8317;52.186;5.688;2022-10-17T04:59:38;21.25;;;13.10;;
16416;SDS011;8317;52.186;5.688;2022-10-17T05:02:05;17.67;;;12.27;;
16416;SDS011;8317;52.186;5.688;2022-10-17T05:04:33;15.60;;;12.55;;
16416;SDS011;8317;52.186;5.688;2022-10-17T05:07:00;17.98;;;11.88;;
16416;SDS011;8317;52.186;5.688;2022-10-17T05:09:27;17.05;;;12.32;;
16416;SDS011;8317;52.186;5.688;2022-10-17T05:11:54;17.40;;;12.10;;
16416;SDS011;8317;52.186;5.688;2022-10-17T05:14:21;16.13;;;12.38;;
16416;SDS011;8317;52.186;5.688;2022-10-17T05:16:48;16.85;;;12.57;;
16416;SDS011;8317;52.186;5.688;2022-10-17T05:19:14;20.17;;;12.18;;
16416;SDS011;8317;52.186;5.688;2022-10-17T05:21:43;16.95;;;12.00;;
16416;SDS011;8317;52.186;5.688;2022-10-17T05:24:12;16.20;;;11.32;;
16416;SDS011;8317;52.186;5.688;2022-10-17T05:26:39;17.27;;;11.85;;
16416;SDS011;8317;52.186;5.688;2022-10-17T05:29:06;19.13;;;12.00;;
16416;SDS011;8317;52.186;5.688;2022-10-17T05:31:34;19.52;;;12.48;;
16416;SDS011;8317;52.186;5.688;2022-10-17T05:34:01;14.07;;;11.40;;
16416;SDS011;8317;52.186;5.688;2022-10-17T05:36:28;20.30;;;12.32;;
16416;SDS011;8317;52.186;5.688;2022-10-17T05:38:57;16.10;;;13.73;;
16416;SDS011;8317;52.186;5.688;2022-10-17T05:41:24;16.63;;;12.52;;
16416;SDS011;8317;52.186;5.688;2022-10-17T05:43:51;17.85;;;12.93;;
16416;SDS011;8317;52.186;5.688;2022-10-17T05:46:17;15.50;;;12.15;;
16416;SDS011;8317;52.186;5.688;2022-10-17T05:48:44;22.23;;;12.25;;
16416;SDS011;8317;52.186;5.688;2022-10-17T05:51:11;16.33;;;12.10;;
16416;SDS011;8317;52.186;5.688;2022-10-17T05:53:39;15.73;;;11.88;;
16416;SDS011;8317;52.186;5.688;2022-10-17T05:56:08;14.02;;;11.00;;
16416;SDS011;8317;52.186;5.688;2022-10-17T05:58:38;14.45;;;11.35;;
16416;SDS011;8317;52.186;5.688;2022-10-17T06:01:06;19.40;;;11.13;;
16416;SDS011;8317;52.186;5.688;2022-10-17T06:03:33;15.00;;;11.40;;
16416;SDS011;8317;52.186;5.688;2022-10-17T06:06:04;15.77;;;12.20;;
16416;SDS011;8317;52.186;5.688;2022-10-17T06:08:32;13.05;;;11.63;;
16416;SDS011;8317;52.186;5.688;2022-10-17T06:10:59;15.30;;;11.32;;
16416;SDS011;8317;52.186;5.688;2022-10-17T06:13:28;17.38;;;10.93;;
16416;SDS011;8317;52.186;5.688;2022-10-17T06:15:55;16.05;;;11.48;;
16416;SDS011;8317;52.186;5.688;2022-10-17T06:18:22;19.25;;;11.82;;
16416;SDS011;8317;52.186;5.688;2022-10-17T06:20:49;15.32;;;11.23;;
16416;SDS011;8317;52.186;5.688;2022-10-17T06:23:15;16.27;;;11.95;;
16416;SDS011;8317;52.186;5.688;2022-10-17T06:25:42;15.32;;;10.90;;
16416;SDS011;8317;52.186;5.688;2022-10-17T06:28:09;15.07;;;11.38;;
16416;SDS011;8317;52.186;5.688;2022-10-17T06:30:38;14.60;;;11.25;;
16416;SDS011;8317;52.186;5.688;2022-10-17T06:33:05;15.75;;;11.55;;
16416;SDS011;8317;52.186;5.688;2022-10-17T06:35:32;13.80;;;10.73;;
16416;SDS011;8317;52.186;5.688;2022-10-17T06:37:59;16.02;;;11.80;;
16416;SDS011;8317;52.186;5.688;2022-10-17T06:40:26;17.13;;;11.77;;
16416;SDS011;8317;52.186;5.688;2022-10-17T06:42:54;15.45;;;11.30;;
16416;SDS011;8317;52.186;5.688;2022-10-17T06:45:21;14.82;;;11.30;;
16416;SDS011;8317;52.186;5.688;2022-10-17T06:47:50;15.02;;;12.13;;
16416;SDS011;8317;52.186;5.688;2022-10-17T06:50:16;18.83;;;12.23;;
16416;SDS011;8317;52.186;5.688;2022-10-17T06:52:43;13.05;;;11.35;;
16416;SDS011;8317;52.186;5.688;2022-10-17T06:55:10;16.70;;;12.55;;
16416;SDS011;8317;52.186;5.688;2022-10-17T06:57:37;14.70;;;11.93;;
16416;SDS011;8317;52.186;5.688;2022-10-17T07:00:04;14.93;;;11.55;;
16416;SDS011;8317;52.186;5.688;2022-10-17T07:02:32;13.05;;;11.30;;
16416;SDS011;8317;52.186;5.688;2022-10-17T07:05:00;18.13;;;12.30;;
16416;SDS011;8317;52.186;5.688;2022-10-17T07:07:29;17.23;;;12.05;;
16416;SDS011;8317;52.186;5.688;2022-10-17T07:09:56;15.85;;;12.32;;
16416;SDS011;8317;52.186;5.688;2022-10-17T07:12:23;16.35;;;11.30;;
16416;SDS011;8317;52.186;5.688;2022-10-17T07:14:50;18.85;;;10.85;;
16416;SDS011;8317;52.186;5.688;2022-10-17T07:17:17;16.35;;;11.82;;
16416;SDS011;8317;52.186;5.688;2022-10-17T07:19:44;17.38;;;11.55;;
16416;SDS011;8317;52.186;5.688;2022-10-17T07:22:12;19.27;;;11.93;;
16416;SDS011;8317;52.186;5.688;2022-10-17T07:24:39;17.25;;;10.82;;
16416;SDS011;8317;52.186;5.688;2022-10-17T07:27:06;14.65;;;11.77;;
16416;SDS011;8317;52.186;5.688;2022-10-17T07:29:33;12.60;;;10.85;;
16416;SDS011;8317;52.186;5.688;2022-10-17T07:32:00;17.02;;;12.05;;
16416;SDS011;8317;52.186;5.688;2022-10-17T07:34:28;16.05;;;11.52;;
16416;SDS011;8317;52.186;5.688;2022-10-17T07:36:55;20.02;;;12.23;;
16416;SDS011;8317;52.186;5.688;2022-10-17T07:39:23;17.27;;;11.88;;
16416;SDS011;8317;52.186;5.688;2022-10-17T07:41:50;14.18;;;12.23;;
16416;SDS011;8317;52.186;5.688;2022-10-17T07:44:17;18.13;;;11.50;;
16416;SDS011;8317;52.186;5.688;2022-10-17T07:46:44;19.08;;;11.70;;
16416;SDS011;8317;52.186;5.688;2022-10-17T07:49:11;15.98;;;12.23;;
16416;SDS011;8317;52.186;5.688;2022-10-17T07:51:38;15.95;;;11.48;;
16416;SDS011;8317;52.186;5.688;2022-10-17T07:54:05;13.32;;;11.88;;
16416;SDS011;8317;52.186;5.688;2022-10-17T07:56:33;13.23;;;11.02;;
16416;SDS011;8317;52.186;5.688;2022-10-17T07:59:00;14.70;;;10.98;;
16416;SDS011;8317;52.186;5.688;2022-10-17T08:01:27;15.90;;;11.60;;
16416;SDS011;8317;52.186;5.688;2022-10-17T08:03:54;12.85;;;10.80;;
16416;SDS011;8317;52.186;5.688;2022-10-17T08:06:20;18.15;;;11.50;;
16416;SDS011;8317;52.186;5.688;2022-10-17T08:08:47;14.35;;;10.77;;
16416;SDS011;8317;52.186;5.688;2022-10-17T08:11:14;14.10;;;10.73;;
16416;SDS011;8317;52.186;5.688;2022-10-17T08:13:43;12.48;;;11.10;;
16416;SDS011;8317;52.186;5.688;2022-10-17T08:16:11;16.80;;;11.02;;
16416;SDS011;8317;52.186;5.688;2022-10-17T08:18:39;14.45;;;11.25;;
16416;SDS011;8317;52.186;5.688;2022-10-17T08:21:07;17.85;;;11.98;;
16416;SDS011;8317;52.186;5.688;2022-10-17T08:23:35;16.60;;;12.05;;
16416;SDS011;8317;52.186;5.688;2022-10-17T08:26:02;16.17;;;10.93;;
16416;SDS011;8317;52.186;5.688;2022-10-17T08:28:32;15.00;;;11.30;;
16416;SDS011;8317;52.186;5.688;2022-10-17T08:31:05;15.23;;;12.13;;
16416;SDS011;8317;52.186;5.688;2022-10-17T08:33:33;16.40;;;11.98;;
16416;SDS011;8317;52.186;5.688;2022-10-17T08:36:00;18.92;;;12.40;;
16416;SDS011;8317;52.186;5.688;2022-10-17T08:38:27;17.58;;;12.40;;
16416;SDS011;8317;52.186;5.688;2022-10-17T08:40:55;19.50;;;12.90;;
16416;SDS011;8317;52.186;5.688;2022-10-17T08:46:16;16.10;;;12.10;;
16416;SDS011;8317;52.186;5.688;2022-10-17T08:48:44;20.15;;;13.10;;
16416;SDS011;8317;52.186;5.688;2022-10-17T08:51:14;19.42;;;13.00;;
16416;SDS011;8317;52.186;5.688;2022-10-17T08:53:45;21.00;;;13.75;;
16416;SDS011;8317;52.186;5.688;2022-10-17T08:56:16;17.17;;;12.30;;
16416;SDS011;8317;52.186;5.688;2022-10-17T08:58:45;17.38;;;13.25;;
16416;SDS011;8317;52.186;5.688;2022-10-17T09:01:16;20.25;;;13.68;;
16416;SDS011;8317;52.186;5.688;2022-10-17T09:04:01;20.30;;;14.13;;
16416;SDS011;8317;52.186;5.688;2022-10-17T09:06:42;16.45;;;13.82;;
16416;SDS011;8317;52.186;5.688;2022-10-17T09:09:14;22.02;;;14.05;;
16416;SDS011;8317;52.186;5.688;2022-10-17T09:11:55;16.75;;;13.07;;
16416;SDS011;8317;52.186;5.688;2022-10-17T09:14:35;18.05;;;13.27;;
16416;SDS011;8317;52.186;5.688;2022-10-17T09:17:20;18.50;;;13.80;;
16416;SDS011;8317;52.186;5.688;2022-10-17T09:19:58;18.63;;;13.80;;
16416;SDS011;8317;52.186;5.688;2022-10-17T09:22:29;20.08;;;14.13;;
16416;SDS011;8317;52.186;5.688;2022-10-17T09:25:01;17.80;;;14.05;;
16416;SDS011;8317;52.186;5.688;2022-10-17T09:27:32;17.23;;;13.60;;
16416;SDS011;8317;52.186;5.688;2022-10-17T09:30:11;19.10;;;13.95;;
16416;SDS011;8317;52.186;5.688;2022-10-17T09:32:49;17.23;;;13.10;;
16416;SDS011;8317;52.186;5.688;2022-10-17T09:35:17;18.40;;;14.65;;
16416;SDS011;8317;52.186;5.688;2022-10-17T09:37:45;17.83;;;13.98;;
16416;SDS011;8317;52.186;5.688;2022-10-17T09:40:15;21.17;;;15.30;;
16416;SDS011;8317;52.186;5.688;2022-10-17T09:42:46;21.13;;;15.40;;
16416;SDS011;8317;52.186;5.688;2022-10-17T09:45:16;21.42;;;15.02;;
16416;SDS011;8317;52.186;5.688;2022-10-17T09:47:51;18.17;;;15.00;;
16416;SDS011;8317;52.186;5.688;2022-10-17T09:50:25;20.00;;;13.95;;
16416;SDS011;8317;52.186;5.688;2022-10-17T09:52:53;18.33;;;14.43;;
16416;SDS011;8317;52.186;5.688;2022-10-17T09:55:25;18.65;;;14.32;;
16416;SDS011;8317;52.186;5.688;2022-10-17T09:57:57;18.50;;;14.98;;
16416;SDS011;8317;52.186;5.688;2022-10-17T10:00:27;17.38;;;15.02;;
16416;SDS011;8317;52.186;5.688;2022-10-17T10:03:15;20.15;;;14.48;;
16416;SDS011;8317;52.186;5.688;2022-10-17T10:05:56;22.27;;;15.13;;
16416;SDS011;8317;52.186;5.688;2022-10-17T10:08:26;23.65;;;15.02;;
16416;SDS011;8317;52.186;5.688;2022-10-17T10:10:58;21.42;;;16.15;;
16416;SDS011;8317;52.186;5.688;2022-10-17T10:13:28;20.70;;;16.08;;
16416;SDS011;8317;52.186;5.688;2022-10-17T10:16:11;21.05;;;15.82;;
16416;SDS011;8317;52.186;5.688;2022-10-17T10:18:42;21.90;;;16.65;;
16416;SDS011;8317;52.186;5.688;2022-10-17T10:21:10;23.73;;;15.80;;
16416;SDS011;8317;52.186;5.688;2022-10-17T10:23:38;20.45;;;16.10;;
16416;SDS011;8317;52.186;5.688;2022-10-17T10:28:54;17.00;;;13.10;;
16416;SDS011;8317;52.186;5.688;2022-10-17T10:31:28;20.10;;;13.82;;
16416;SDS011;8317;52.186;5.688;2022-10-17T10:34:00;16.77;;;13.35;;
16416;SDS011;8317;52.186;5.688;2022-10-17T10:36:46;20.88;;;12.25;;
16416;SDS011;8317;52.186;5.688;2022-10-17T10:42:18;13.93;;;10.80;;
16416;SDS011;8317;52.186;5.688;2022-10-17T10:44:48;12.85;;;10.80;;
16416;SDS011;8317;52.186;5.688;2022-10-17T10:47:20;14.00;;;10.98;;
16416;SDS011;8317;52.186;5.688;2022-10-17T10:50:06;13.75;;;10.77;;
16416;SDS011;8317;52.186;5.688;2022-10-17T10:52:42;11.80;;;10.60;;
16416;SDS011;8317;52.186;5.688;2022-10-17T10:55:22;16.05;;;10.77;;
16416;SDS011;8317;52.186;5.688;2022-10-17T10:57:51;13.43;;;10.90;;
16416;SDS011;8317;52.186;5.688;2022-10-17T11:00:23;13.45;;;11.27;;
16416;SDS011;8317;52.186;5.688;2022-10-17T11:02:55;12.90;;;11.02;;
16416;SDS011;8317;52.186;5.688;2022-10-17T11:05:33;13.60;;;11.23;;
16416;SDS011;8317;52.186;5.688;2022-10-17T11:08:06;12.77;;;11.05;;
16416;SDS011;8317;52.186;5.688;2022-10-17T11:10:41;12.70;;;10.85;;
16416;SDS011;8317;52.186;5.688;2022-10-17T11:13:18;13.20;;;10.80;;
16416;SDS011;8317;52.186;5.688;2022-10-17T11:15:51;13.52;;;11.45;;
16416;SDS011;8317;52.186;5.688;2022-10-17T11:18:25;17.70;;;12.32;;
16416;SDS011;8317;52.186;5.688;2022-10-17T11:20:58;13.48;;;11.20;;
16416;SDS011;8317;52.186;5.688;2022-10-17T11:23:29;15.52;;;11.98;;
16416;SDS011;8317;52.186;5.688;2022-10-17T11:26:03;13.00;;;11.27;;
16416;SDS011;8317;52.186;5.688;2022-10-17T11:28:36;15.20;;;11.35;;
16416;SDS011;8317;52.186;5.688;2022-10-17T11:31:03;14.20;;;12.00;;
16416;SDS011;8317;52.186;5.688;2022-10-17T11:33:34;18.50;;;11.48;;
16416;SDS011;8317;52.186;5.688;2022-10-17T11:36:08;13.05;;;10.68;;
16416;SDS011;8317;52.186;5.688;2022-10-17T11:38:40;12.23;;;10.43;;
16416;SDS011;8317;52.186;5.688;2022-10-17T11:41:11;13.20;;;11.27;;
16416;SDS011;8317;52.186;5.688;2022-10-17T11:43:41;12.90;;;11.32;;
16416;SDS011;8317;52.186;5.688;2022-10-17T11:46:14;19.60;;;13.30;;
16416;SDS011;8317;52.186;5.688;2022-10-17T11:48:46;13.95;;;11.68;;
16416;SDS011;8317;52.186;5.688;2022-10-17T11:51:20;14.63;;;11.35;;
16416;SDS011;8317;52.186;5.688;2022-10-17T11:53:48;12.57;;;10.93;;
16416;SDS011;8317;52.186;5.688;2022-10-17T11:56:24;15.57;;;11.50;;
16416;SDS011;8317;52.186;5.688;2022-10-17T11:58:57;15.63;;;11.32;;
16416;SDS011;8317;52.186;5.688;2022-10-17T12:01:51;13.88;;;11.50;;
16416;SDS011;8317;52.186;5.688;2022-10-17T12:04:25;13.20;;;10.95;;
16416;SDS011;8317;52.186;5.688;2022-10-17T12:07:07;12.52;;;11.18;;
16416;SDS011;8317;52.186;5.688;2022-10-17T12:09:41;13.70;;;10.73;;
16416;SDS011;8317;52.186;5.688;2022-10-17T12:12:23;14.35;;;10.98;;
16416;SDS011;8317;52.186;5.688;2022-10-17T12:14:51;16.33;;;10.77;;
16416;SDS011;8317;52.186;5.688;2022-10-17T12:17:28;13.88;;;10.68;;
16416;SDS011;8317;52.186;5.688;2022-10-17T12:23:01;13.60;;;10.80;;
16416;SDS011;8317;52.186;5.688;2022-10-17T12:25:47;17.02;;;11.13;;
16416;SDS011;8317;52.186;5.688;2022-10-17T12:28:24;11.15;;;9.82;;
16416;SDS011;8317;52.186;5.688;2022-10-17T12:30:54;12.68;;;10.02;;
16416;SDS011;8317;52.186;5.688;2022-10-17T12:33:30;12.43;;;10.32;;
16416;SDS011;8317;52.186;5.688;2022-10-17T12:42:29;12.70;;;10.27;;
16416;SDS011;8317;52.186;5.688;2022-10-17T12:48:11;11.98;;;9.95;;
16416;SDS011;8317;52.186;5.688;2022-10-17T12:50:58;12.20;;;10.07;;
16416;SDS011;8317;52.186;5.688;2022-10-17T12:53:27;11.20;;;10.00;;
16416;SDS011;8317;52.186;5.688;2022-10-17T12:56:03;13.23;;;10.65;;
16416;SDS011;8317;52.186;5.688;2022-10-17T12:58:32;11.80;;;10.60;;
16416;SDS011;8317;52.186;5.688;2022-10-17T13:01:00;13.52;;;10.30;;
16416;SDS011;8317;52.186;5.688;2022-10-17T13:03:29;12.70;;;10.98;;
16416;SDS011;8317;52.186;5.688;2022-10-17T13:05:58;14.07;;;11.27;;
16416;SDS011;8317;52.186;5.688;2022-10-17T13:08:27;14.13;;;10.63;;
16416;SDS011;8317;52.186;5.688;2022-10-17T13:10:56;15.88;;;11.35;;
16416;SDS011;8317;52.186;5.688;2022-10-17T13:13:25;17.98;;;11.25;;
16416;SDS011;8317;52.186;5.688;2022-10-17T13:16:03;15.13;;;11.82;;
16416;SDS011;8317;52.186;5.688;2022-10-17T13:18:30;13.55;;;11.50;;
16416;SDS011;8317;52.186;5.688;2022-10-17T13:20:58;15.52;;;11.57;;
16416;SDS011;8317;52.186;5.688;2022-10-17T13:23:28;18.13;;;12.68;;
16416;SDS011;8317;52.186;5.688;2022-10-17T13:26:04;14.48;;;11.95;;
16416;SDS011;8317;52.186;5.688;2022-10-17T13:28:34;12.68;;;11.38;;
16416;SDS011;8317;52.186;5.688;2022-10-17T13:31:01;13.93;;;11.82;;
16416;SDS011;8317;52.186;5.688;2022-10-17T13:33:31;15.80;;;12.85;;
16416;SDS011;8317;52.186;5.688;2022-10-17T13:36:01;14.40;;;12.85;;
16416;SDS011;8317;52.186;5.688;2022-10-17T13:38:32;17.08;;;13.20;;
16416;SDS011;8317;52.186;5.688;2022-10-17T13:41:01;14.60;;;12.82;;
16416;SDS011;8317;52.186;5.688;2022-10-17T13:43:29;17.13;;;13.25;;
16416;SDS011;8317;52.186;5.688;2022-10-17T13:46:00;16.42;;;13.75;;
16416;SDS011;8317;52.186;5.688;2022-10-17T13:48:30;15.35;;;13.75;;
16416;SDS011;8317;52.186;5.688;2022-10-17T13:50:59;15.52;;;12.80;;
16416;SDS011;8317;52.186;5.688;2022-10-17T13:53:29;16.70;;;12.98;;
16416;SDS011;8317;52.186;5.688;2022-10-17T13:55:58;16.65;;;13.02;;
16416;SDS011;8317;52.186;5.688;2022-10-17T13:58:29;16.27;;;11.95;;
16416;SDS011;8317;52.186;5.688;2022-10-17T14:01:00;18.65;;;12.70;;
16416;SDS011;8317;52.186;5.688;2022-10-17T14:03:27;14.27;;;12.80;;
16416;SDS011;8317;52.186;5.688;2022-10-17T14:05:58;15.98;;;13.45;;
16416;SDS011;8317;52.186;5.688;2022-10-17T14:08:33;18.20;;;13.82;;
16416;SDS011;8317;52.186;5.688;2022-10-17T14:11:01;16.38;;;13.30;;
16416;SDS011;8317;52.186;5.688;2022-10-17T14:13:38;13.93;;;12.23;;
16416;SDS011;8317;52.186;5.688;2022-10-17T14:16:07;14.57;;;12.43;;
16416;SDS011;8317;52.186;5.688;2022-10-17T14:18:35;15.85;;;13.10;;
16416;SDS011;8317;52.186;5.688;2022-10-17T14:21:03;13.30;;;11.02;;
16416;SDS011;8317;52.186;5.688;2022-10-17T14:23:32;13.40;;;12.00;;
16416;SDS011;8317;52.186;5.688;2022-10-17T14:26:09;13.55;;;12.15;;
16416;SDS011;8317;52.186;5.688;2022-10-17T14:28:38;13.25;;;11.88;;
16416;SDS011;8317;52.186;5.688;2022-10-17T14:31:12;13.23;;;11.80;;
16416;SDS011;8317;52.186;5.688;2022-10-17T14:33:49;15.18;;;11.93;;
16416;SDS011;8317;52.186;5.688;2022-10-17T14:36:17;14.23;;;11.23;;
16416;SDS011;8317;52.186;5.688;2022-10-17T14:38:45;13.98;;;10.80;;
16416;SDS011;8317;52.186;5.688;2022-10-17T14:41:18;13.80;;;10.77;;
16416;SDS011;8317;52.186;5.688;2022-10-17T14:43:51;12.63;;;10.45;;
16416;SDS011;8317;52.186;5.688;2022-10-17T14:46:21;12.55;;;10.35;;
16416;SDS011;8317;52.186;5.688;2022-10-17T14:48:52;14.02;;;10.05;;
16416;SDS011;8317;52.186;5.688;2022-10-17T14:51:21;12.32;;;10.25;;
16416;SDS011;8317;52.186;5.688;2022-10-17T14:53:58;13.20;;;9.90;;
16416;SDS011;8317;52.186;5.688;2022-10-17T14:56:33;12.50;;;10.00;;
16416;SDS011;8317;52.186;5.688;2022-10-17T14:59:02;12.48;;;10.43;;
16416;SDS011;8317;52.186;5.688;2022-10-17T15:01:32;11.57;;;10.32;;
16416;SDS011;8317;52.186;5.688;2022-10-17T15:03:59;14.25;;;10.23;;
16416;SDS011;8317;52.186;5.688;2022-10-17T15:06:26;12.40;;;10.07;;
16416;SDS011;8317;52.186;5.688;2022-10-17T15:08:55;10.95;;;9.32;;
16416;SDS011;8317;52.186;5.688;2022-10-17T15:11:22;12.95;;;10.25;;
16416;SDS011;8317;52.186;5.688;2022-10-17T15:13:49;11.10;;;9.50;;
16416;SDS011;8317;52.186;5.688;2022-10-17T15:16:17;13.77;;;10.07;;
16416;SDS011;8317;52.186;5.688;2022-10-17T15:18:46;12.40;;;10.07;;